Etusivu
METAR-TAF:

METAR-TAF

Lentoasemat :

Gran Canarian lentoasema

Gran Canaria, Espanja

Leveyspiiri: 27-56N, Pituuspiiri: 015-23W, korkeus merenpinnasta: 23 m

Tämänhetkinen sää

Tämä raportti tehtiin 26 minuuttia sitten, kello 09.00 UTC
Tuuli 12 kn pohjoisesta/koillisesta
Lämpötila 25°C
Kosteus 74%
Ilmanpaine 1020 hPa
Näkyvyys 10 km tai enemmän
Muutamia pilviä 1100 ft:n korkeudessa
Hajonneita pilviä 1500 ft:n korkeudessa

METAR: GCLP 200900Z 03012KT 9999 FEW011 BKN015 25/20 Q1020 NOSIG

Aika: 10:26 (09:26 UTC)

Sääennuste

Tämä raportti tehtiin 1 tunti ja 26 minuuttia sitten, kello 08.00 UTC
Ennuste voimassa 20. päivästä klo 09 UTC - 21. päivään klo 09 UTC
Tuuli 15 kn pohjoisesta/koillisesta
Näkyvyys 10 km tai enemmän
Muutamia pilviä 2500 ft:n korkeudessa
Todennäköisyys 40% :
Ajoittain
20. päivästä klo 09 UTC - 20. päivään klo 12 UTC
Tuuli 5 kn pohjoisesta

TAF: GCLP 200800Z 2009/2109 02015KT 9999 FEW025 TX29/2014Z TN24/2105Z PROB40 TEMPO 2009/2012 36005KT

Säähavainnot ja -ennusteet yli 4000 lentoasemalta (METAR- ja TAF-raportit).

Käytössä olevat sääasemat on merkitty karttaan keltaisilla ja punaisilla pisteillä.

Aseta hiiri pisteen päälle nähdäksesi sääaseman nimen.

Klikkaa sitten nähdäksesi säähavainnot ja -ennusteet.

Kartan vaihtaminen: klikkaa mustalla rastilla varustettuja vihreitä pisteitä, niin voit zoomata sisään; viivalla varustettua vihreää pistettä, niin voit zoomata ulos tai vihreitä nuolia, niin pääset viereisille kartoille.


METAR-TAF: